sensor_id;sensor_type;location;lat;lon;timestamp;temperature;humidity
73688;SHT30;62257;48.376;-4.378;2023-01-15T00:00:59;7.64;81.23
73688;SHT30;62257;48.376;-4.378;2023-01-15T00:03:25;7.68;82.34
73688;SHT30;62257;48.376;-4.378;2023-01-15T00:05:50;7.68;81.29
73688;SHT30;62257;48.376;-4.378;2023-01-15T00:08:16;7.68;80.90
73688;SHT30;62257;48.376;-4.378;2023-01-15T00:10:41;7.66;78.69
73688;SHT30;62257;48.376;-4.378;2023-01-15T00:13:06;7.75;78.70
73688;SHT30;62257;48.376;-4.378;2023-01-15T00:15:32;7.75;80.04
73688;SHT30;62257;48.376;-4.378;2023-01-15T00:17:57;7.81;80.33
73688;SHT30;62257;48.376;-4.378;2023-01-15T00:20:22;7.78;78.66
73688;SHT30;62257;48.376;-4.378;2023-01-15T00:22:48;7.76;77.23
73688;SHT30;62257;48.376;-4.378;2023-01-15T00:25:13;7.71;75.43
73688;SHT30;62257;48.376;-4.378;2023-01-15T00:27:57;7.69;79.55
73688;SHT30;62257;48.376;-4.378;2023-01-15T00:30:23;7.69;78.34
73688;SHT30;62257;48.376;-4.378;2023-01-15T00:32:49;7.69;78.36
73688;SHT30;62257;48.376;-4.378;2023-01-15T00:35:20;7.74;79.72
73688;SHT30;62257;48.376;-4.378;2023-01-15T00:37:46;7.59;81.85
73688;SHT30;62257;48.376;-4.378;2023-01-15T00:40:13;7.40;83.47
73688;SHT30;62257;48.376;-4.378;2023-01-15T00:42:39;7.21;84.08
73688;SHT30;62257;48.376;-4.378;2023-01-15T00:45:06;7.14;84.57
73688;SHT30;62257;48.376;-4.378;2023-01-15T00:47:39;7.07;85.19
73688;SHT30;62257;48.376;-4.378;2023-01-15T00:50:06;7.06;85.45
73688;SHT30;62257;48.376;-4.378;2023-01-15T00:52:33;6.97;84.78
73688;SHT30;62257;48.376;-4.378;2023-01-15T00:54:58;6.95;85.23
73688;SHT30;62257;48.376;-4.378;2023-01-15T00:57:23;6.86;85.45
73688;SHT30;62257;48.376;-4.378;2023-01-15T00:59:49;6.76;86.25
73688;SHT30;62257;48.376;-4.378;2023-01-15T01:02:14;6.71;85.82
73688;SHT30;62257;48.376;-4.378;2023-01-15T01:04:40;6.73;86.81
73688;SHT30;62257;48.376;-4.378;2023-01-15T01:07:05;6.71;86.01
73688;SHT30;62257;48.376;-4.378;2023-01-15T01:09:31;6.69;86.88
73688;SHT30;62257;48.376;-4.378;2023-01-15T01:11:56;6.69;86.16
73688;SHT30;62257;48.376;-4.378;2023-01-15T01:14:21;6.73;86.36
73688;SHT30;62257;48.376;-4.378;2023-01-15T01:16:47;6.75;85.82
73688;SHT30;62257;48.376;-4.378;2023-01-15T01:19:16;6.82;84.24
73688;SHT30;62257;48.376;-4.378;2023-01-15T01:21:42;6.85;84.28
73688;SHT30;62257;48.376;-4.378;2023-01-15T01:24:13;6.82;83.29
73688;SHT30;62257;48.376;-4.378;2023-01-15T01:26:40;6.82;82.51
73688;SHT30;62257;48.376;-4.378;2023-01-15T01:29:05;6.86;85.03
73688;SHT30;62257;48.376;-4.378;2023-01-15T01:31:31;6.90;81.16
73688;SHT30;62257;48.376;-4.378;2023-01-15T01:33:57;7.00;82.85
73688;SHT30;62257;48.376;-4.378;2023-01-15T01:36:29;7.07;84.17
73688;SHT30;62257;48.376;-4.378;2023-01-15T01:38:55;7.14;82.88
73688;SHT30;62257;48.376;-4.378;2023-01-15T01:41:21;7.07;84.04
73688;SHT30;62257;48.376;-4.378;2023-01-15T01:43:59;6.92;82.63
73688;SHT30;62257;48.376;-4.378;2023-01-15T01:46:26;6.82;83.23
73688;SHT30;62257;48.376;-4.378;2023-01-15T01:49:11;6.76;82.95
73688;SHT30;62257;48.376;-4.378;2023-01-15T01:51:51;6.72;83.70
73688;SHT30;62257;48.376;-4.378;2023-01-15T01:54:20;6.73;82.65
73688;SHT30;62257;48.376;-4.378;2023-01-15T01:56:48;6.76;82.33
73688;SHT30;62257;48.376;-4.378;2023-01-15T01:59:15;6.85;82.91
73688;SHT30;62257;48.376;-4.378;2023-01-15T02:01:42;6.90;82.78
73688;SHT30;62257;48.376;-4.378;2023-01-15T02:04:08;6.83;79.10
73688;SHT30;62257;48.376;-4.378;2023-01-15T02:06:36;6.76;80.61
73688;SHT30;62257;48.376;-4.378;2023-01-15T02:09:02;6.59;78.93
73688;SHT30;62257;48.376;-4.378;2023-01-15T02:11:29;6.59;79.90
73688;SHT30;62257;48.376;-4.378;2023-01-15T02:14:11;6.54;78.71
73688;SHT30;62257;48.376;-4.378;2023-01-15T02:21:57;6.48;81.88
73688;SHT30;62257;48.376;-4.378;2023-01-15T02:27:15;6.45;81.70
73688;SHT30;62257;48.376;-4.378;2023-01-15T02:32:22;6.46;82.95
73688;SHT30;62257;48.376;-4.378;2023-01-15T02:34:54;6.48;81.97
73688;SHT30;62257;48.376;-4.378;2023-01-15T02:37:27;6.48;81.91
73688;SHT30;62257;48.376;-4.378;2023-01-15T02:39:56;6.52;81.71
73688;SHT30;62257;48.376;-4.378;2023-01-15T02:42:24;6.54;82.86
73688;SHT30;62257;48.376;-4.378;2023-01-15T02:44:53;6.56;82.02
73688;SHT30;62257;48.376;-4.378;2023-01-15T02:47:27;6.65;82.99
73688;SHT30;62257;48.376;-4.378;2023-01-15T02:49:56;6.64;82.94
73688;SHT30;62257;48.376;-4.378;2023-01-15T02:52:29;6.68;83.42
73688;SHT30;62257;48.376;-4.378;2023-01-15T02:55:01;6.68;81.76
73688;SHT30;62257;48.376;-4.378;2023-01-15T02:57:29;6.68;83.05
73688;SHT30;62257;48.376;-4.378;2023-01-15T03:00:00;6.71;83.44
73688;SHT30;62257;48.376;-4.378;2023-01-15T03:02:29;6.72;83.41
73688;SHT30;62257;48.376;-4.378;2023-01-15T03:05:17;6.76;83.95
73688;SHT30;62257;48.376;-4.378;2023-01-15T03:07:54;6.78;84.01
73688;SHT30;62257;48.376;-4.378;2023-01-15T03:10:37;6.85;84.27
73688;SHT30;62257;48.376;-4.378;2023-01-15T03:13:10;7.00;83.26
73688;SHT30;62257;48.376;-4.378;2023-01-15T03:18:41;7.06;84.79
73688;SHT30;62257;48.376;-4.378;2023-01-15T03:21:12;7.07;83.33
73688;SHT30;62257;48.376;-4.378;2023-01-15T03:23:44;7.09;81.95
73688;SHT30;62257;48.376;-4.378;2023-01-15T03:26:11;7.06;82.57
73688;SHT30;62257;48.376;-4.378;2023-01-15T03:28:38;7.07;82.96
73688;SHT30;62257;48.376;-4.378;2023-01-15T03:31:04;7.07;81.97
73688;SHT30;62257;48.376;-4.378;2023-01-15T03:33:30;7.07;82.18
73688;SHT30;62257;48.376;-4.378;2023-01-15T03:35:58;7.07;80.90
73688;SHT30;62257;48.376;-4.378;2023-01-15T03:38:28;7.11;82.89
73688;SHT30;62257;48.376;-4.378;2023-01-15T03:46:39;7.51;81.01
73688;SHT30;62257;48.376;-4.378;2023-01-15T03:49:16;7.50;83.22
73688;SHT30;62257;48.376;-4.378;2023-01-15T03:52:00;7.54;82.56
73688;SHT30;62257;48.376;-4.378;2023-01-15T03:57:26;7.65;82.02
73688;SHT30;62257;48.376;-4.378;2023-01-15T03:59:57;7.68;81.52
73688;SHT30;62257;48.376;-4.378;2023-01-15T04:02:24;7.69;82.50
73688;SHT30;62257;48.376;-4.378;2023-01-15T04:04:52;7.68;80.48
73688;SHT30;62257;48.376;-4.378;2023-01-15T04:07:19;7.69;80.08
73688;SHT30;62257;48.376;-4.378;2023-01-15T04:09:45;7.74;79.69
73688;SHT30;62257;48.376;-4.378;2023-01-15T04:12:11;7.76;81.38
73688;SHT30;62257;48.376;-4.378;2023-01-15T04:14:36;7.76;79.46
73688;SHT30;62257;48.376;-4.378;2023-01-15T04:17:02;7.75;80.47
73688;SHT30;62257;48.376;-4.378;2023-01-15T04:19:27;7.82;80.51
73688;SHT30;62257;48.376;-4.378;2023-01-15T04:21:52;7.87;80.10
73688;SHT30;62257;48.376;-4.378;2023-01-15T04:24:18;7.96;81.03
73688;SHT30;62257;48.376;-4.378;2023-01-15T04:26:43;8.02;81.23
73688;SHT30;62257;48.376;-4.378;2023-01-15T04:29:09;7.99;81.25
73688;SHT30;62257;48.376;-4.378;2023-01-15T04:31:34;7.86;82.48
73688;SHT30;62257;48.376;-4.378;2023-01-15T04:34:01;7.79;82.71
73688;SHT30;62257;48.376;-4.378;2023-01-15T04:36:27;7.62;82.67
73688;SHT30;62257;48.376;-4.378;2023-01-15T04:38:53;7.48;83.64
73688;SHT30;62257;48.376;-4.378;2023-01-15T04:41:19;7.41;82.99
73688;SHT30;62257;48.376;-4.378;2023-01-15T04:44:16;7.35;83.45
73688;SHT30;62257;48.376;-4.378;2023-01-15T04:46:44;7.31;83.23
73688;SHT30;62257;48.376;-4.378;2023-01-15T04:49:15;7.35;82.53
73688;SHT30;62257;48.376;-4.378;2023-01-15T04:51:41;7.40;84.36
73688;SHT30;62257;48.376;-4.378;2023-01-15T04:54:08;7.38;82.26
73688;SHT30;62257;48.376;-4.378;2023-01-15T04:56:39;7.43;82.40
73688;SHT30;62257;48.376;-4.378;2023-01-15T04:59:05;7.52;82.53
73688;SHT30;62257;48.376;-4.378;2023-01-15T05:01:31;7.55;81.88
73688;SHT30;62257;48.376;-4.378;2023-01-15T05:03:57;7.48;82.13
73688;SHT30;62257;48.376;-4.378;2023-01-15T05:06:26;7.40;81.31
73688;SHT30;62257;48.376;-4.378;2023-01-15T05:08:52;7.34;81.77
73688;SHT30;62257;48.376;-4.378;2023-01-15T05:11:17;7.28;79.65
73688;SHT30;62257;48.376;-4.378;2023-01-15T05:13:42;7.24;81.05
73688;SHT30;62257;48.376;-4.378;2023-01-15T05:18:33;7.21;78.20
73688;SHT30;62257;48.376;-4.378;2023-01-15T05:20:59;7.20;79.93
73688;SHT30;62257;48.376;-4.378;2023-01-15T05:23:24;7.24;79.88
73688;SHT30;62257;48.376;-4.378;2023-01-15T05:25:49;7.20;81.33
73688;SHT30;62257;48.376;-4.378;2023-01-15T05:28:15;7.21;80.75
73688;SHT30;62257;48.376;-4.378;2023-01-15T05:30:40;7.26;82.17
73688;SHT30;62257;48.376;-4.378;2023-01-15T05:33:05;7.38;81.06
73688;SHT30;62257;48.376;-4.378;2023-01-15T05:35:31;7.48;81.06
73688;SHT30;62257;48.376;-4.378;2023-01-15T05:37:56;7.58;81.92
73688;SHT30;62257;48.376;-4.378;2023-01-15T05:40:21;7.65;83.39
73688;SHT30;62257;48.376;-4.378;2023-01-15T05:42:47;7.71;84.21
73688;SHT30;62257;48.376;-4.378;2023-01-15T05:45:12;7.72;83.02
73688;SHT30;62257;48.376;-4.378;2023-01-15T05:47:38;7.72;83.56
73688;SHT30;62257;48.376;-4.378;2023-01-15T05:50:03;7.74;84.71
73688;SHT30;62257;48.376;-4.378;2023-01-15T05:52:31;7.57;84.08
73688;SHT30;62257;48.376;-4.378;2023-01-15T05:54:57;7.43;84.67
73688;SHT30;62257;48.376;-4.378;2023-01-15T05:57:22;7.30;85.32
73688;SHT30;62257;48.376;-4.378;2023-01-15T05:59:47;7.24;85.25
73688;SHT30;62257;48.376;-4.378;2023-01-15T06:02:14;7.24;85.45
73688;SHT30;62257;48.376;-4.378;2023-01-15T06:04:40;7.23;85.72
73688;SHT30;62257;48.376;-4.378;2023-01-15T06:07:05;7.21;85.93
73688;SHT30;62257;48.376;-4.378;2023-01-15T06:09:30;7.26;85.98
73688;SHT30;62257;48.376;-4.378;2023-01-15T06:11:56;7.35;85.04
73688;SHT30;62257;48.376;-4.378;2023-01-15T06:14:21;7.41;85.42
73688;SHT30;62257;48.376;-4.378;2023-01-15T06:16:47;7.45;85.92
73688;SHT30;62257;48.376;-4.378;2023-01-15T06:19:12;7.47;85.00
73688;SHT30;62257;48.376;-4.378;2023-01-15T06:21:38;7.51;85.30
73688;SHT30;62257;48.376;-4.378;2023-01-15T06:24:04;7.61;85.44
73688;SHT30;62257;48.376;-4.378;2023-01-15T06:26:30;7.65;84.87
73688;SHT30;62257;48.376;-4.378;2023-01-15T06:28:55;7.58;84.32
73688;SHT30;62257;48.376;-4.378;2023-01-15T06:31:22;7.48;84.57
73688;SHT30;62257;48.376;-4.378;2023-01-15T06:33:48;7.45;83.08
73688;SHT30;62257;48.376;-4.378;2023-01-15T06:36:15;7.35;82.79
73688;SHT30;62257;48.376;-4.378;2023-01-15T06:38:42;7.34;83.27
73688;SHT30;62257;48.376;-4.378;2023-01-15T06:41:11;6.90;87.52
73688;SHT30;62257;48.376;-4.378;2023-01-15T06:43:55;6.59;89.54
73688;SHT30;62257;48.376;-4.378;2023-01-15T06:46:43;6.46;91.26
73688;SHT30;62257;48.376;-4.378;2023-01-15T06:49:29;6.38;89.72
73688;SHT30;62257;48.376;-4.378;2023-01-15T06:51:54;6.41;89.71
73688;SHT30;62257;48.376;-4.378;2023-01-15T06:54:20;6.41;91.90
73688;SHT30;62257;48.376;-4.378;2023-01-15T06:56:45;6.49;90.47
73688;SHT30;62257;48.376;-4.378;2023-01-15T06:59:10;6.52;89.69
73688;SHT30;62257;48.376;-4.378;2023-01-15T07:01:36;6.54;89.61
73688;SHT30;62257;48.376;-4.378;2023-01-15T07:04:01;6.48;89.72
73688;SHT30;62257;48.376;-4.378;2023-01-15T07:06:27;6.41;90.79
73688;SHT30;62257;48.376;-4.378;2023-01-15T07:08:52;6.33;89.68
73688;SHT30;62257;48.376;-4.378;2023-01-15T07:11:17;6.23;89.41
73688;SHT30;62257;48.376;-4.378;2023-01-15T07:13:43;6.18;89.69
73688;SHT30;62257;48.376;-4.378;2023-01-15T07:16:08;6.11;88.38
73688;SHT30;62257;48.376;-4.378;2023-01-15T07:18:51;6.10;88.02
73688;SHT30;62257;48.376;-4.378;2023-01-15T07:21:17;6.09;87.71
73688;SHT30;62257;48.376;-4.378;2023-01-15T07:23:42;6.13;87.89
73688;SHT30;62257;48.376;-4.378;2023-01-15T07:26:08;6.21;87.27
73688;SHT30;62257;48.376;-4.378;2023-01-15T07:28:33;6.31;88.26
73688;SHT30;62257;48.376;-4.378;2023-01-15T07:30:58;6.40;88.25
73688;SHT30;62257;48.376;-4.378;2023-01-15T07:33:24;6.44;87.77
73688;SHT30;62257;48.376;-4.378;2023-01-15T07:35:49;6.46;87.88
73688;SHT30;62257;48.376;-4.378;2023-01-15T07:38:14;6.46;87.78
73688;SHT30;62257;48.376;-4.378;2023-01-15T07:40:40;6.46;87.82
73688;SHT30;62257;48.376;-4.378;2023-01-15T07:43:05;6.48;87.54
73688;SHT30;62257;48.376;-4.378;2023-01-15T07:45:49;6.44;87.44
73688;SHT30;62257;48.376;-4.378;2023-01-15T07:48:33;6.44;85.23
73688;SHT30;62257;48.376;-4.378;2023-01-15T07:51:17;6.44;86.09
73688;SHT30;62257;48.376;-4.378;2023-01-15T07:53:43;6.54;86.11
73688;SHT30;62257;48.376;-4.378;2023-01-15T07:56:09;6.55;84.64
73688;SHT30;62257;48.376;-4.378;2023-01-15T07:58:35;6.62;86.08
73688;SHT30;62257;48.376;-4.378;2023-01-15T08:01:00;6.72;87.07
73688;SHT30;62257;48.376;-4.378;2023-01-15T08:03:25;6.82;87.01
73688;SHT30;62257;48.376;-4.378;2023-01-15T08:05:51;6.96;86.84
73688;SHT30;62257;48.376;-4.378;2023-01-15T08:08:17;7.04;87.18
73688;SHT30;62257;48.376;-4.378;2023-01-15T08:10:43;7.06;85.74
73688;SHT30;62257;48.376;-4.378;2023-01-15T08:13:29;6.92;85.66
73688;SHT30;62257;48.376;-4.378;2023-01-15T08:16:13;6.75;86.67
73688;SHT30;62257;48.376;-4.378;2023-01-15T08:18:39;6.62;87.22
73688;SHT30;62257;48.376;-4.378;2023-01-15T08:21:04;6.48;87.73
73688;SHT30;62257;48.376;-4.378;2023-01-15T08:23:30;6.40;87.43
73688;SHT30;62257;48.376;-4.378;2023-01-15T08:25:59;6.35;87.68
73688;SHT30;62257;48.376;-4.378;2023-01-15T08:28:25;6.33;88.02
73688;SHT30;62257;48.376;-4.378;2023-01-15T08:30:50;6.37;87.84
73688;SHT30;62257;48.376;-4.378;2023-01-15T08:33:15;6.46;87.72
73688;SHT30;62257;48.376;-4.378;2023-01-15T08:35:41;6.73;87.75
73688;SHT30;62257;48.376;-4.378;2023-01-15T08:38:07;7.06;86.95
73688;SHT30;62257;48.376;-4.378;2023-01-15T08:40:33;7.16;86.69
73688;SHT30;62257;48.376;-4.378;2023-01-15T08:43:00;7.13;86.34
73688;SHT30;62257;48.376;-4.378;2023-01-15T08:45:26;7.11;86.77
73688;SHT30;62257;48.376;-4.378;2023-01-15T08:47:54;7.13;86.36
73688;SHT30;62257;48.376;-4.378;2023-01-15T08:50:20;7.10;86.74
73688;SHT30;62257;48.376;-4.378;2023-01-15T08:52:45;7.09;87.45
73688;SHT30;62257;48.376;-4.378;2023-01-15T08:55:11;7.11;87.68
73688;SHT30;62257;48.376;-4.378;2023-01-15T08:57:36;7.16;87.02
73688;SHT30;62257;48.376;-4.378;2023-01-15T09:00:03;7.23;86.51
73688;SHT30;62257;48.376;-4.378;2023-01-15T09:02:29;7.31;86.28
73688;SHT30;62257;48.376;-4.378;2023-01-15T09:04:54;7.38;85.98
73688;SHT30;62257;48.376;-4.378;2023-01-15T09:07:21;7.40;85.52
73688;SHT30;62257;48.376;-4.378;2023-01-15T09:09:46;7.43;85.22
73688;SHT30;62257;48.376;-4.378;2023-01-15T09:12:12;7.47;84.74
73688;SHT30;62257;48.376;-4.378;2023-01-15T09:14:38;7.47;82.75
73688;SHT30;62257;48.376;-4.378;2023-01-15T09:17:03;7.50;84.79
73688;SHT30;62257;48.376;-4.378;2023-01-15T09:19:29;7.48;84.96
73688;SHT30;62257;48.376;-4.378;2023-01-15T09:21:54;7.37;85.57
73688;SHT30;62257;48.376;-4.378;2023-01-15T09:24:20;7.26;85.02
73688;SHT30;62257;48.376;-4.378;2023-01-15T09:26:45;7.17;85.60
73688;SHT30;62257;48.376;-4.378;2023-01-15T09:29:11;7.04;85.66
73688;SHT30;62257;48.376;-4.378;2023-01-15T09:31:37;6.93;85.90
73688;SHT30;62257;48.376;-4.378;2023-01-15T09:34:02;6.92;85.92
73688;SHT30;62257;48.376;-4.378;2023-01-15T09:36:29;6.96;86.65
73688;SHT30;62257;48.376;-4.378;2023-01-15T09:38:55;7.03;86.38
73688;SHT30;62257;48.376;-4.378;2023-01-15T09:41:22;7.17;87.09
73688;SHT30;62257;48.376;-4.378;2023-01-15T09:44:20;7.27;86.10
73688;SHT30;62257;48.376;-4.378;2023-01-15T09:47:00;7.32;86.67
73688;SHT30;62257;48.376;-4.378;2023-01-15T09:57:30;7.26;85.77
73688;SHT30;62257;48.376;-4.378;2023-01-15T09:59:57;7.26;84.57
73688;SHT30;62257;48.376;-4.378;2023-01-15T10:07:40;7.41;85.28
73688;SHT30;62257;48.376;-4.378;2023-01-15T10:10:17;7.45;85.81
73688;SHT30;62257;48.376;-4.378;2023-01-15T10:12:44;7.51;85.08
73688;SHT30;62257;48.376;-4.378;2023-01-15T10:17:54;7.72;84.10
73688;SHT30;62257;48.376;-4.378;2023-01-15T10:23:31;8.03;83.15
73688;SHT30;62257;48.376;-4.378;2023-01-15T10:29:00;8.36;82.02
73688;SHT30;62257;48.376;-4.378;2023-01-15T10:36:47;8.62;82.83
73688;SHT30;62257;48.376;-4.378;2023-01-15T10:42:13;8.52;81.71
73688;SHT30;62257;48.376;-4.378;2023-01-15T10:44:51;8.45;81.21
73688;SHT30;62257;48.376;-4.378;2023-01-15T10:47:28;8.41;82.26
73688;SHT30;62257;48.376;-4.378;2023-01-15T10:49:55;8.41;83.77
73688;SHT30;62257;48.376;-4.378;2023-01-15T10:55:02;8.37;81.74
73688;SHT30;62257;48.376;-4.378;2023-01-15T10:57:46;8.37;81.79
73688;SHT30;62257;48.376;-4.378;2023-01-15T11:00:15;8.40;81.96
73688;SHT30;62257;48.376;-4.378;2023-01-15T11:02:45;8.60;81.06
73688;SHT30;62257;48.376;-4.378;2023-01-15T11:05:19;8.78;81.46
73688;SHT30;62257;48.376;-4.378;2023-01-15T11:07:47;8.85;80.07
73688;SHT30;62257;48.376;-4.378;2023-01-15T11:10:15;8.92;80.27
73688;SHT30;62257;48.376;-4.378;2023-01-15T11:12:53;8.98;82.02
73688;SHT30;62257;48.376;-4.378;2023-01-15T11:15:38;9.15;82.48
73688;SHT30;62257;48.376;-4.378;2023-01-15T11:18:25;9.44;81.95
73688;SHT30;62257;48.376;-4.378;2023-01-15T11:21:16;9.82;79.57
73688;SHT30;62257;48.376;-4.378;2023-01-15T11:23:42;10.08;80.30
73688;SHT30;62257;48.376;-4.378;2023-01-15T11:26:08;10.19;80.21
73688;SHT30;62257;48.376;-4.378;2023-01-15T11:28:37;10.19;80.08
73688;SHT30;62257;48.376;-4.378;2023-01-15T11:31:08;10.26;79.62
73688;SHT30;62257;48.376;-4.378;2023-01-15T11:33:34;10.30;78.37
73688;SHT30;62257;48.376;-4.378;2023-01-15T11:36:03;10.34;78.82
73688;SHT30;62257;48.376;-4.378;2023-01-15T11:38:49;10.32;78.79
73688;SHT30;62257;48.376;-4.378;2023-01-15T11:43:53;10.10;77.81
73688;SHT30;62257;48.376;-4.378;2023-01-15T11:46:37;9.98;78.41
73688;SHT30;62257;48.376;-4.378;2023-01-15T11:49:21;9.85;77.43
73688;SHT30;62257;48.376;-4.378;2023-01-15T11:52:08;9.78;76.54
73688;SHT30;62257;48.376;-4.378;2023-01-15T11:54:40;9.70;77.90
73688;SHT30;62257;48.376;-4.378;2023-01-15T11:57:06;9.79;78.51
73688;SHT30;62257;48.376;-4.378;2023-01-15T11:59:32;9.92;78.08
73688;SHT30;62257;48.376;-4.378;2023-01-15T12:02:00;10.03;79.07
73688;SHT30;62257;48.376;-4.378;2023-01-15T12:06:57;9.91;78.93
73688;SHT30;62257;48.376;-4.378;2023-01-15T12:09:47;9.86;78.90
73688;SHT30;62257;48.376;-4.378;2023-01-15T12:12:27;9.74;78.00
73688;SHT30;62257;48.376;-4.378;2023-01-15T12:20:10;9.61;77.87
73688;SHT30;62257;48.376;-4.378;2023-01-15T12:36:14;9.47;79.28
73688;SHT30;62257;48.376;-4.378;2023-01-15T12:38:59;9.51;79.61
73688;SHT30;62257;48.376;-4.378;2023-01-15T12:41:35;9.62;80.48
73688;SHT30;62257;48.376;-4.378;2023-01-15T12:44:57;9.85;80.67
73688;SHT30;62257;48.376;-4.378;2023-01-15T12:50:39;10.12;76.60
73688;SHT30;62257;48.376;-4.378;2023-01-15T12:55:58;10.46;76.39
73688;SHT30;62257;48.376;-4.378;2023-01-15T13:01:01;10.65;73.08
73688;SHT30;62257;48.376;-4.378;2023-01-15T13:03:33;10.75;75.15
73688;SHT30;62257;48.376;-4.378;2023-01-15T13:06:04;10.81;73.62
73688;SHT30;62257;48.376;-4.378;2023-01-15T13:11:50;10.88;73.57
73688;SHT30;62257;48.376;-4.378;2023-01-15T13:14:18;10.84;72.43
73688;SHT30;62257;48.376;-4.378;2023-01-15T13:17:14;10.78;71.79
73688;SHT30;62257;48.376;-4.378;2023-01-15T13:20:13;10.85;72.94
73688;SHT30;62257;48.376;-4.378;2023-01-15T13:22:53;10.94;72.86
73688;SHT30;62257;48.376;-4.378;2023-01-15T13:33:35;10.74;75.61
73688;SHT30;62257;48.376;-4.378;2023-01-15T13:36:34;10.74;76.05
73688;SHT30;62257;48.376;-4.378;2023-01-15T13:39:02;10.69;74.82
73688;SHT30;62257;48.376;-4.378;2023-01-15T13:41:31;10.71;74.53
73688;SHT30;62257;48.376;-4.378;2023-01-15T13:46:46;10.57;76.92
73688;SHT30;62257;48.376;-4.378;2023-01-15T13:49:19;10.53;77.39
73688;SHT30;62257;48.376;-4.378;2023-01-15T13:51:48;10.46;77.66
73688;SHT30;62257;48.376;-4.378;2023-01-15T13:54:18;10.41;75.87
73688;SHT30;62257;48.376;-4.378;2023-01-15T13:56:44;10.41;76.61
73688;SHT30;62257;48.376;-4.378;2023-01-15T13:59:38;10.33;76.61
73688;SHT30;62257;48.376;-4.378;2023-01-15T14:02:27;10.26;78.51
73688;SHT30;62257;48.376;-4.378;2023-01-15T14:04:53;10.12;80.04
73688;SHT30;62257;48.376;-4.378;2023-01-15T14:07:29;10.02;80.13
73688;SHT30;62257;48.376;-4.378;2023-01-15T14:10:17;9.96;79.25
73688;SHT30;62257;48.376;-4.378;2023-01-15T14:15:39;9.99;78.39
73688;SHT30;62257;48.376;-4.378;2023-01-15T14:18:27;10.05;77.98
73688;SHT30;62257;48.376;-4.378;2023-01-15T14:39:28;9.98;79.37
73688;SHT30;62257;48.376;-4.378;2023-01-15T14:45:14;9.93;78.61
73688;SHT30;62257;48.376;-4.378;2023-01-15T14:47:47;9.91;79.11
73688;SHT30;62257;48.376;-4.378;2023-01-15T14:50:38;9.86;80.15
73688;SHT30;62257;48.376;-4.378;2023-01-15T14:55:58;9.81;80.58
73688;SHT30;62257;48.376;-4.378;2023-01-15T15:09:11;9.98;79.75
73688;SHT30;62257;48.376;-4.378;2023-01-15T15:11:44;9.96;78.95
73688;SHT30;62257;48.376;-4.378;2023-01-15T15:14:30;9.91;80.49
73688;SHT30;62257;48.376;-4.378;2023-01-15T15:17:04;9.79;81.14
73688;SHT30;62257;48.376;-4.378;2023-01-15T15:19:38;9.71;82.14
73688;SHT30;62257;48.376;-4.378;2023-01-15T15:22:07;9.65;81.17
73688;SHT30;62257;48.376;-4.378;2023-01-15T15:24:44;9.67;81.39
73688;SHT30;62257;48.376;-4.378;2023-01-15T15:27:19;9.72;82.16
73688;SHT30;62257;48.376;-4.378;2023-01-15T15:29:44;9.82;80.66
73688;SHT30;62257;48.376;-4.378;2023-01-15T15:32:18;9.85;80.00
73688;SHT30;62257;48.376;-4.378;2023-01-15T15:34:47;9.85;79.13
73688;SHT30;62257;48.376;-4.378;2023-01-15T15:37:17;9.82;79.64
73688;SHT30;62257;48.376;-4.378;2023-01-15T15:40:14;9.83;81.11
73688;SHT30;62257;48.376;-4.378;2023-01-15T15:42:52;9.81;77.84
73688;SHT30;62257;48.376;-4.378;2023-01-15T15:45:37;9.77;79.16
73688;SHT30;62257;48.376;-4.378;2023-01-15T15:48:29;9.75;78.59
73688;SHT30;62257;48.376;-4.378;2023-01-15T15:54:18;9.74;80.07
73688;SHT30;62257;48.376;-4.378;2023-01-15T15:59:17;9.72;79.59
73688;SHT30;62257;48.376;-4.378;2023-01-15T16:01:43;9.71;78.55
73688;SHT30;62257;48.376;-4.378;2023-01-15T16:04:15;9.74;79.93
73688;SHT30;62257;48.376;-4.378;2023-01-15T16:06:42;9.72;80.74
73688;SHT30;62257;48.376;-4.378;2023-01-15T16:09:08;9.75;79.92
73688;SHT30;62257;48.376;-4.378;2023-01-15T16:11:35;9.74;80.45
73688;SHT30;62257;48.376;-4.378;2023-01-15T16:14:05;9.65;81.11
73688;SHT30;62257;48.376;-4.378;2023-01-15T16:16:32;9.58;81.66
73688;SHT30;62257;48.376;-4.378;2023-01-15T16:18:59;9.45;82.33
73688;SHT30;62257;48.376;-4.378;2023-01-15T16:21:32;9.33;81.62
73688;SHT30;62257;48.376;-4.378;2023-01-15T16:23:59;9.23;81.92
73688;SHT30;62257;48.376;-4.378;2023-01-15T16:26:37;9.07;80.86
73688;SHT30;62257;48.376;-4.378;2023-01-15T16:29:05;8.96;81.11
73688;SHT30;62257;48.376;-4.378;2023-01-15T16:31:36;8.76;82.18
73688;SHT30;62257;48.376;-4.378;2023-01-15T16:34:03;8.67;82.14
73688;SHT30;62257;48.376;-4.378;2023-01-15T16:36:37;8.62;81.58
73688;SHT30;62257;48.376;-4.378;2023-01-15T16:39:04;8.60;83.35
73688;SHT30;62257;48.376;-4.378;2023-01-15T16:41:36;8.61;82.92
73688;SHT30;62257;48.376;-4.378;2023-01-15T16:44:04;8.60;82.50
73688;SHT30;62257;48.376;-4.378;2023-01-15T16:46:32;8.64;83.23
73688;SHT30;62257;48.376;-4.378;2023-01-15T16:49:27;8.67;84.31
73688;SHT30;62257;48.376;-4.378;2023-01-15T16:51:54;8.65;85.40
73688;SHT30;62257;48.376;-4.378;2023-01-15T16:57:01;8.51;86.78
73688;SHT30;62257;48.376;-4.378;2023-01-15T17:02:11;8.45;87.25
73688;SHT30;62257;48.376;-4.378;2023-01-15T17:04:39;8.45;87.74
73688;SHT30;62257;48.376;-4.378;2023-01-15T17:07:38;8.41;88.20
73688;SHT30;62257;48.376;-4.378;2023-01-15T17:10:05;8.42;88.51
73688;SHT30;62257;48.376;-4.378;2023-01-15T17:12:41;8.37;88.80
73688;SHT30;62257;48.376;-4.378;2023-01-15T17:17:39;8.38;89.22
73688;SHT30;62257;48.376;-4.378;2023-01-15T17:20:07;8.36;89.34
73688;SHT30;62257;48.376;-4.378;2023-01-15T17:22:35;8.38;89.24
73688;SHT30;62257;48.376;-4.378;2023-01-15T17:25:30;8.42;89.56
73688;SHT30;62257;48.376;-4.378;2023-01-15T17:27:56;8.44;89.37
73688;SHT30;62257;48.376;-4.378;2023-01-15T17:30:24;8.48;89.30
73688;SHT30;62257;48.376;-4.378;2023-01-15T17:33:04;8.51;89.16
73688;SHT30;62257;48.376;-4.378;2023-01-15T17:35:32;8.54;88.73
73688;SHT30;62257;48.376;-4.378;2023-01-15T17:37:58;8.60;88.78
73688;SHT30;62257;48.376;-4.378;2023-01-15T17:40:23;8.62;88.78
73688;SHT30;62257;48.376;-4.378;2023-01-15T17:42:49;8.65;88.49
73688;SHT30;62257;48.376;-4.378;2023-01-15T17:45:24;8.68;89.03
73688;SHT30;62257;48.376;-4.378;2023-01-15T17:47:50;8.68;89.35
73688;SHT30;62257;48.376;-4.378;2023-01-15T17:50:16;8.68;89.68
73688;SHT30;62257;48.376;-4.378;2023-01-15T17:52:42;8.68;90.35
73688;SHT30;62257;48.376;-4.378;2023-01-15T17:55:13;8.65;90.28
73688;SHT30;62257;48.376;-4.378;2023-01-15T17:57:57;8.64;90.93
73688;SHT30;62257;48.376;-4.378;2023-01-15T18:01:00;8.58;90.76
73688;SHT30;62257;48.376;-4.378;2023-01-15T18:03:46;8.55;90.52
73688;SHT30;62257;48.376;-4.378;2023-01-15T18:06:31;8.58;90.32
73688;SHT30;62257;48.376;-4.378;2023-01-15T18:09:00;8.60;90.29
73688;SHT30;62257;48.376;-4.378;2023-01-15T18:11:25;8.58;90.42
73688;SHT30;62257;48.376;-4.378;2023-01-15T18:13:51;8.62;90.22
73688;SHT30;62257;48.376;-4.378;2023-01-15T18:16:16;8.61;92.20
73688;SHT30;62257;48.376;-4.378;2023-01-15T18:18:42;8.60;92.58
73688;SHT30;62257;48.376;-4.378;2023-01-15T18:21:07;8.60;92.47
73688;SHT30;62257;48.376;-4.378;2023-01-15T18:23:33;8.64;92.28
73688;SHT30;62257;48.376;-4.378;2023-01-15T18:26:06;8.65;91.10